Terminal Aerodrome Forecast
Issued by NWS

Home | Current Version | Previous Version | Text Only | Print | Product List | Glossary On
Versions: 1 2 3 4 5 6 7 8 9 10 11 12 13 14 15 16
000
FTUS43 KIND 011121
TAFBMG
TAF
KBMG 011121Z 0112/0212 21004KT P6SM SCT050
      TEMPO 0112/0114 4SM BR
     FM011600 23007KT P6SM SCT025 SCT250
     FM020100 22003KT P6SM FEW250
     FM020700 00000KT 4SM BR SCT060 SCT250
      AMD LTD TO CLD VIS AND WIND TIL 011300=

USA.gov is the U.S. government's official web portal to all federal, state and local government web resources and services.